Time;durP1;ratioP1;P1;durP2;ratioP2;P2;SDS_P1;SDS_P2;PMS_P1;PMS_P2;Temp;Humidity;BMP_temperature;BMP_pressure;BME280_temperature;BME280_humidity;BME280_pressure;Samples;Min_cycle;Max_cycle;Signal;HPM_P1;HPM_P2
2020/12/24 00:00:55;;;;;;;3.97;2.70;;;12.00;83.60;;;;;;5026410;28;20042;-64
2020/12/24 00:03:21;;;;;;;4.68;3.05;;;12.00;83.20;;;;;;5019423;28;20045;-63
2020/12/24 00:05:47;;;;;;;5.75;2.80;;;12.10;82.80;;;;;;5019550;28;20038;-64
2020/12/24 00:08:12;;;;;;;2.78;2.30;;;12.00;82.90;;;;;;5026505;28;20049;-64
2020/12/24 00:10:38;;;;;;;4.20;2.40;;;12.20;82.40;;;;;;5028636;28;20037;-65
2020/12/24 00:13:03;;;;;;;5.43;3.25;;;12.10;82.00;;;;;;5018687;28;20045;-64
2020/12/24 00:15:29;;;;;;;5.70;2.65;;;12.20;81.60;;;;;;5021369;28;20103;-66
2020/12/24 00:17:54;;;;;;;3.65;2.78;;;12.20;81.90;;;;;;5017797;28;20049;-65
2020/12/24 00:20:20;;;;;;;5.03;2.67;;;12.20;81.50;;;;;;5020004;28;20041;-65
2020/12/24 00:22:46;;;;;;;4.40;2.47;;;12.20;81.40;;;;;;5037921;23;20064;-61
2020/12/24 00:25:11;;;;;;;4.10;2.40;;;12.10;81.60;;;;;;5030290;28;20030;-60
2020/12/24 00:27:37;;;;;;;3.90;2.60;;;12.20;81.60;;;;;;5032536;28;20037;-61
2020/12/24 00:30:04;;;;;;;3.10;2.20;;;12.10;81.50;;;;;;5036253;28;20041;-61
2020/12/24 00:32:29;;;;;;;5.03;2.47;;;12.20;81.40;;;;;;5033992;28;20025;-61
2020/12/24 00:34:55;;;;;;;4.15;2.70;;;12.20;81.40;;;;;;5031785;28;20044;-60
2020/12/24 00:37:21;;;;;;;4.78;3.72;;;12.20;81.20;;;;;;5014342;28;20034;-61
2020/12/24 00:39:46;;;;;;;2.83;2.30;;;12.20;81.10;;;;;;5031286;28;20076;-61
2020/12/24 00:42:12;;;;;;;4.65;2.65;;;12.30;80.80;;;;;;5030831;28;20026;-61
2020/12/24 00:44:37;;;;;;;5.60;2.78;;;12.20;80.80;;;;;;5012653;28;20030;-62
2020/12/24 00:47:03;;;;;;;4.22;2.63;;;12.10;80.70;;;;;;5031075;28;20472;-62
2020/12/24 00:49:28;;;;;;;4.18;2.63;;;12.10;80.80;;;;;;5031425;28;20131;-61
2020/12/24 00:51:54;;;;;;;5.50;2.60;;;12.20;80.90;;;;;;5041383;28;20038;-60
2020/12/24 00:54:20;;;;;;;6.22;2.80;;;12.20;80.90;;;;;;5014024;28;20025;-60
2020/12/24 00:56:45;;;;;;;3.28;2.38;;;12.20;80.70;;;;;;5034147;28;20065;-60
2020/12/24 00:59:11;;;;;;;3.92;2.38;;;12.10;80.80;;;;;;5034631;28;20083;-60
2020/12/24 01:01:37;;;;;;;4.32;2.50;;;12.10;81.50;;;;;;5034456;28;20122;-59
2020/12/24 01:04:03;;;;;;;4.85;2.70;;;12.00;81.40;;;;;;5034746;28;20099;-60
2020/12/24 01:06:28;;;;;;;4.30;2.50;;;12.10;81.60;;;;;;5034458;28;20041;-59
2020/12/24 01:08:54;;;;;;;3.90;2.30;;;12.00;81.50;;;;;;5016767;28;20048;-59
2020/12/24 01:11:20;;;;;;;3.88;2.22;;;12.10;81.80;;;;;;5034034;28;20523;-59
2020/12/24 01:13:45;;;;;;;3.65;2.70;;;12.00;81.80;;;;;;5033772;28;20033;-60
2020/12/24 01:16:11;;;;;;;3.33;2.40;;;12.00;81.90;;;;;;5034124;28;20037;-61
2020/12/24 01:18:37;;;;;;;4.55;2.55;;;12.00;81.90;;;;;;5032500;28;20040;-59
2020/12/24 01:21:02;;;;;;;4.13;2.50;;;12.00;82.00;;;;;;5034555;28;20132;-58
2020/12/24 01:23:28;;;;;;;3.50;2.72;;;12.00;81.90;;;;;;5034762;28;20132;-59
2020/12/24 01:25:54;;;;;;;4.13;2.40;;;11.90;82.10;;;;;;5035635;28;20045;-61
2020/12/24 01:28:19;;;;;;;3.55;2.25;;;11.80;82.20;;;;;;5019687;28;20038;-61
2020/12/24 01:30:45;;;;;;;3.30;2.47;;;11.80;81.90;;;;;;5036062;28;20416;-59
2020/12/24 01:33:10;;;;;;;3.30;2.50;;;11.80;82.20;;;;;;5016225;28;20591;-59
2020/12/24 01:35:36;;;;;;;4.60;2.47;;;11.80;82.10;;;;;;5015814;28;20480;-62
2020/12/24 01:38:01;;;;;;;4.18;2.70;;;11.80;82.00;;;;;;5034252;28;20389;-59
2020/12/24 01:40:27;;;;;;;3.55;2.40;;;11.80;82.10;;;;;;5016142;28;20484;-58
2020/12/24 01:42:53;;;;;;;5.10;2.38;;;11.90;81.80;;;;;;5033631;28;20447;-60
2020/12/24 01:45:18;;;;;;;4.07;3.00;;;12.00;81.50;;;;;;5034579;28;20033;-64
2020/12/24 01:47:44;;;;;;;5.68;2.45;;;11.90;81.50;;;;;;5036814;28;20059;-63
2020/12/24 01:50:09;;;;;;;2.70;2.33;;;12.00;81.30;;;;;;5035892;28;20123;-63
2020/12/24 01:52:39;;;;;;;3.40;2.63;;;11.90;81.40;;;;;;5037642;28;20033;-63
2020/12/24 01:55:11;;;;;;;4.60;3.05;;;11.90;81.90;;;;;;5033624;28;20029;-63
2020/12/24 01:57:38;;;;;;;3.60;2.35;;;11.80;81.40;;;;;;5033524;28;20519;-63
2020/12/24 02:00:05;;;;;;;5.22;2.40;;;11.90;81.90;;;;;;5034177;28;20479;-63
2020/12/24 02:02:31;;;;;;;3.22;2.40;;;11.80;81.40;;;;;;5036460;28;20040;-63
2020/12/24 02:04:57;;;;;;;5.15;3.35;;;11.90;81.50;;;;;;5033374;28;20037;-61
2020/12/24 02:07:22;;;;;;;3.55;2.28;;;11.80;81.40;;;;;;5016524;28;20041;-62
2020/12/24 02:09:49;;;;;;;3.08;2.38;;;11.80;81.30;;;;;;5033441;28;20051;-63
2020/12/24 02:12:15;;;;;;;3.70;2.40;;;11.90;81.20;;;;;;5032967;28;20045;-63
2020/12/24 02:14:41;;;;;;;3.97;2.60;;;11.80;81.20;;;;;;5031615;28;20029;-64
2020/12/24 02:17:06;;;;;;;3.85;2.40;;;11.90;81.00;;;;;;5031995;28;20692;-63
2020/12/24 02:19:32;;;;;;;3.38;2.40;;;11.90;80.80;;;;;;5030294;28;20146;-63
2020/12/24 02:21:57;;;;;;;3.90;2.85;;;11.90;80.90;;;;;;5030977;28;20052;-62
2020/12/24 02:24:23;;;;;;;2.65;2.35;;;11.90;81.40;;;;;;5028708;28;20502;-63
2020/12/24 02:26:48;;;;;;;4.70;2.70;;;11.90;80.70;;;;;;5032147;28;20278;-62
2020/12/24 02:29:14;;;;;;;3.95;2.63;;;11.90;80.40;;;;;;5033258;28;20106;-63
2020/12/24 02:31:43;;;;;;;3.60;2.60;;;11.90;80.90;;;;;;5032900;28;20029;-63
2020/12/24 02:34:08;;;;;;;5.20;2.72;;;11.80;81.00;;;;;;5014452;28;20038;-63
2020/12/24 02:36:34;;;;;;;5.00;2.75;;;11.80;81.20;;;;;;5032892;28;20034;-63
2020/12/24 02:39:08;;;;;;;5.28;2.83;;;11.80;81.20;;;;;;5032816;28;20400;-62
2020/12/24 02:41:34;;;;;;;4.50;2.65;;;11.80;81.40;;;;;;5022889;28;20056;-60
2020/12/24 02:44:00;;;;;;;4.57;2.75;;;11.70;81.70;;;;;;5013047;28;20488;-61
2020/12/24 02:46:26;;;;;;;4.90;2.60;;;11.80;81.20;;;;;;5016535;28;20041;-61
2020/12/24 02:48:51;;;;;;;3.10;2.45;;;11.90;81.20;;;;;;5028178;28;20543;-62
2020/12/24 02:51:17;;;;;;;4.80;2.72;;;11.80;81.10;;;;;;5048259;28;20041;-61
2020/12/24 02:53:43;;;;;;;4.75;2.70;;;11.80;81.40;;;;;;5032536;28;20065;-58
2020/12/24 02:56:08;;;;;;;6.68;2.70;;;11.80;81.40;;;;;;5032485;28;20052;-58
2020/12/24 02:58:34;;;;;;;4.18;2.50;;;11.80;81.00;;;;;;5033495;28;20120;-60
2020/12/24 03:01:00;;;;;;;5.10;2.53;;;11.80;79.60;;;;;;5033074;28;20029;-59
2020/12/24 03:03:26;;;;;;;2.40;2.20;;;11.80;79.40;;;;;;5033067;28;20389;-60
2020/12/24 03:05:52;;;;;;;2.90;2.33;;;11.80;78.40;;;;;;5031351;28;20029;-60
2020/12/24 03:08:19;;;;;;;3.22;2.33;;;11.80;78.10;;;;;;5033459;28;20048;-60
2020/12/24 03:10:47;;;;;;;4.15;2.50;;;11.80;78.50;;;;;;5014777;28;20033;-59
2020/12/24 03:13:13;;;;;;;4.90;2.40;;;11.80;79.00;;;;;;5033074;28;20037;-61
2020/12/24 03:15:38;;;;;;;3.83;2.70;;;11.80;79.90;;;;;;5032118;28;20049;-61
2020/12/24 03:18:04;;;;;;;3.30;2.42;;;11.70;80.20;;;;;;5013713;28;20034;-60
2020/12/24 03:20:30;;;;;;;3.63;2.30;;;11.70;79.70;;;;;;4999786;28;20108;-62
2020/12/24 03:22:55;;;;;;;2.90;2.42;;;11.60;79.80;;;;;;5032185;28;20520;-59
2020/12/24 03:25:21;;;;;;;3.15;2.33;;;11.60;80.10;;;;;;5032527;28;20030;-58
2020/12/24 03:27:46;;;;;;;3.53;2.38;;;11.70;78.40;;;;;;5033085;28;20029;-60
2020/12/24 03:30:12;;;;;;;4.57;2.60;;;11.70;78.60;;;;;;5034257;28;20038;-59
2020/12/24 03:32:38;;;;;;;3.75;1.92;;;11.60;77.90;;;;;;5032752;28;20041;-61
2020/12/24 03:35:05;;;;;;;2.40;2.17;;;11.50;76.80;;;;;;5015323;28;20034;-62
2020/12/24 03:37:31;;;;;;;3.38;2.38;;;11.50;76.30;;;;;;5013712;28;20034;-60
2020/12/24 03:39:56;;;;;;;3.47;2.15;;;11.40;75.70;;;;;;5013290;28;20550;-61
2020/12/24 03:42:22;;;;;;;3.13;2.28;;;11.40;75.00;;;;;;5027859;28;20468;-60
2020/12/24 03:44:48;;;;;;;5.22;2.35;;;11.40;75.00;;;;;;5031908;28;20032;-61
2020/12/24 03:47:19;;;;;;;3.03;2.63;;;11.30;75.50;;;;;;5035678;28;20041;-61
2020/12/24 03:49:45;;;;;;;7.88;3.10;;;11.20;75.90;;;;;;5013014;28;20447;-61
2020/12/24 03:52:10;;;;;;;3.13;2.20;;;11.10;76.10;;;;;;5024340;28;20030;-59
2020/12/24 03:54:36;;;;;;;5.78;2.45;;;11.00;76.10;;;;;;5032738;28;20021;-59
2020/12/24 03:57:02;;;;;;;5.10;2.00;;;10.90;75.60;;;;;;5032012;28;20167;-62
2020/12/24 03:59:27;;;;;;;4.15;2.50;;;10.90;75.70;;;;;;5031838;28;20057;-62
2020/12/24 04:01:53;;;;;;;3.60;2.13;;;10.90;74.80;;;;;;5032443;28;20052;-61
2020/12/24 04:04:18;;;;;;;4.85;2.33;;;10.80;74.90;;;;;;5013752;28;20214;-61
2020/12/24 04:06:44;;;;;;;4.28;2.78;;;10.80;75.00;;;;;;5021778;28;20033;-60
2020/12/24 04:09:09;;;;;;;3.22;2.08;;;10.70;75.20;;;;;;5010908;28;20048;-61
2020/12/24 04:11:35;;;;;;;5.00;2.00;;;10.70;74.20;;;;;;5012316;28;20074;-60
2020/12/24 04:14:00;;;;;;;5.40;2.17;;;10.70;73.80;;;;;;5013804;28;20551;-62
2020/12/24 04:16:26;;;;;;;3.80;1.95;;;10.60;72.80;;;;;;5027108;28;20029;-63
2020/12/24 04:18:58;;;;;;;4.75;2.40;;;10.70;72.40;;;;;;5016318;28;20041;-58
2020/12/24 04:21:24;;;;;;;4.20;2.40;;;10.70;72.10;;;;;;4997456;28;20038;-61
2020/12/24 04:23:49;;;;;;;4.40;2.30;;;10.60;71.10;;;;;;4997810;28;20454;-60
2020/12/24 04:26:22;;;;;;;4.60;2.00;;;10.60;71.00;;;;;;5031502;28;20453;-60
2020/12/24 04:28:48;;;;;;;4.38;2.08;;;10.60;71.20;;;;;;5013960;28;20042;-60
2020/12/24 04:31:14;;;;;;;4.97;2.30;;;10.60;71.30;;;;;;5018015;28;20037;-62
2020/12/24 04:33:41;;;;;;;6.10;2.22;;;10.60;71.20;;;;;;5035003;28;20385;-59
2020/12/24 04:36:06;;;;;;;4.18;2.20;;;10.40;71.00;;;;;;5035815;28;20029;-61
2020/12/24 04:38:33;;;;;;;9.43;2.22;;;10.30;71.50;;;;;;5035550;28;20502;-59
2020/12/24 04:40:59;;;;;;;7.43;2.55;;;10.30;71.70;;;;;;5017831;28;20021;-58
2020/12/24 04:43:28;;;;;;;5.32;2.33;;;10.20;69.90;;;;;;5035420;28;20041;-58
2020/12/24 04:45:55;;;;;;;5.40;2.60;;;10.10;70.70;;;;;;5035617;28;20400;-56
2020/12/24 04:48:21;;;;;;;4.60;2.30;;;10.00;71.30;;;;;;5043671;28;20115;-61
2020/12/24 04:50:52;;;;;;;7.40;2.55;;;10.00;70.90;;;;;;5054084;28;20446;-60
2020/12/24 04:53:19;;;;;;;4.63;2.08;;;9.90;70.30;;;;;;5035935;28;20480;-61
2020/12/24 04:55:45;;;;;;;6.25;2.80;;;9.70;71.00;;;;;;5035024;28;20091;-60
2020/12/24 04:58:11;;;;;;;5.15;2.50;;;9.60;70.90;;;;;;5035182;28;20030;-59
2020/12/24 05:00:39;;;;;;;4.53;2.45;;;9.50;70.70;;;;;;5035251;28;20140;-59
2020/12/24 05:03:09;;;;;;;5.80;1.83;;;9.50;70.80;;;;;;5036344;28;20053;-63
2020/12/24 05:05:36;;;;;;;6.45;1.85;;;9.30;71.60;;;;;;5041176;28;20025;-62
2020/12/24 05:08:04;;;;;;;8.48;3.13;;;9.20;71.80;;;;;;5020824;28;20032;-62
2020/12/24 05:10:31;;;;;;;5.35;2.20;;;9.10;72.40;;;;;;5034597;28;20068;-60
2020/12/24 05:12:58;;;;;;;7.53;1.70;;;9.20;72.10;;;;;;5034542;28;20079;-61
2020/12/24 05:15:27;;;;;;;6.30;2.38;;;9.20;72.30;;;;;;5034131;28;20488;-58
2020/12/24 05:17:53;;;;;;;5.78;2.63;;;9.20;72.40;;;;;;5000384;28;20533;-62
2020/12/24 05:20:19;;;;;;;5.00;2.20;;;9.00;73.10;;;;;;5034545;28;20115;-60
2020/12/24 05:22:44;;;;;;;8.15;2.20;;;9.00;73.80;;;;;;5034731;28;20050;-60
2020/12/24 05:25:11;;;;;;;4.63;2.45;;;9.00;74.10;;;;;;5034240;28;20037;-59
2020/12/24 05:27:40;;;;;;;7.65;2.30;;;8.90;74.40;;;;;;5034303;28;20030;-61
2020/12/24 05:30:06;;;;;;;5.35;2.20;;;8.70;75.10;;;;;;5033810;28;20037;-61
2020/12/24 05:32:33;;;;;;;7.60;2.63;;;8.70;75.20;;;;;;5033962;28;20042;-60
2020/12/24 05:35:10;;;;;;;6.32;3.10;;;8.70;75.20;;;;;;5034267;28;20065;-60
2020/12/24 05:37:36;;;;;;;10.57;2.80;;;8.70;75.10;;;;;;5016377;28;20026;-62
2020/12/24 05:40:28;;;;;;;6.55;2.42;;;8.90;74.60;;;;;;5034148;28;20030;-62
2020/12/24 05:42:56;;;;;;;6.00;2.60;;;8.90;74.60;;;;;;5029501;28;20059;-61
2020/12/24 05:45:30;;;;;;;4.95;2.53;;;8.80;74.40;;;;;;5035295;28;20389;-61
2020/12/24 05:48:13;;;;;;;7.53;2.53;;;8.80;74.10;;;;;;5039360;28;20036;-59
2020/12/24 05:50:41;;;;;;;7.75;2.45;;;8.80;74.00;;;;;;5036149;28;20041;-60
2020/12/24 05:53:08;;;;;;;9.00;4.80;;;8.80;73.70;;;;;;5014187;28;20033;-61
2020/12/24 05:55:35;;;;;;;6.03;2.70;;;8.70;73.80;;;;;;4996530;28;20430;-63
2020/12/24 05:58:01;;;;;;;7.00;2.70;;;8.80;73.30;;;;;;4997151;28;20025;-59
2020/12/24 06:00:35;;;;;;;5.88;2.45;;;8.70;73.50;;;;;;5015749;28;20403;-59
2020/12/24 06:03:11;;;;;;;10.48;2.55;;;8.70;72.70;;;;;;5001004;28;20026;-59
2020/12/24 06:05:59;;;;;;;7.10;2.78;;;8.70;72.80;;;;;;5015984;28;20029;-59
2020/12/24 06:08:30;;;;;;;6.80;2.92;;;8.70;72.50;;;;;;5014800;28;20057;-61
2020/12/24 06:11:06;;;;;;;9.27;2.95;;;8.70;72.60;;;;;;5014062;28;20041;-60
2020/12/24 06:13:41;;;;;;;6.63;3.10;;;8.70;72.50;;;;;;4996129;28;20481;-61
2020/12/24 06:16:11;;;;;;;8.18;3.40;;;8.70;72.10;;;;;;5025843;28;20048;-61
2020/12/24 06:18:46;;;;;;;6.80;2.65;;;8.60;72.40;;;;;;5033893;28;20044;-60
2020/12/24 06:21:22;;;;;;;10.13;3.13;;;8.60;72.50;;;;;;5033598;28;20036;-60
2020/12/24 06:23:54;;;;;;;8.95;2.88;;;8.50;73.10;;;;;;5056455;22;20048;-66
2020/12/24 06:26:23;;;;;;;6.10;2.53;;;8.50;72.90;;;;;;5033110;28;20034;-65
2020/12/24 06:28:53;;;;;;;9.23;2.70;;;8.50;73.20;;;;;;5033160;28;20077;-64
2020/12/24 06:31:20;;;;;;;8.55;3.10;;;8.40;73.30;;;;;;5033490;28;20444;-66
2020/12/24 06:33:46;;;;;;;9.32;2.90;;;8.40;73.40;;;;;;5032813;28;20053;-65
2020/12/24 06:36:44;;;;;;;7.72;2.67;;;8.50;72.90;;;;;;5033027;28;20076;-66
2020/12/24 06:39:09;;;;;;;8.30;2.50;;;8.60;72.00;;;;;;4989114;28;20049;-65
2020/12/24 06:41:38;;;;;;;5.05;2.47;;;8.60;72.30;;;;;;5012496;28;20041;-65
2020/12/24 06:44:04;;;;;;;7.45;2.80;;;8.50;71.80;;;;;;5012745;28;20040;-65
2020/12/24 06:46:57;;;;;;;8.32;3.35;;;8.60;71.80;;;;;;5013086;28;20046;-66
2020/12/24 06:49:32;;;;;;;5.75;2.17;;;8.70;71.40;;;;;;5029288;28;20040;-66
2020/12/24 06:51:58;;;;;;;6.68;2.90;;;8.80;71.30;;;;;;5032097;28;20041;-66
2020/12/24 06:54:28;;;;;;;7.70;2.50;;;8.80;70.80;;;;;;5032459;28;20105;-65
2020/12/24 06:57:24;;;;;;;5.47;2.35;;;8.80;70.60;;;;;;5032544;28;20037;-66
2020/12/24 07:00:25;;;;;;;8.15;2.20;;;8.80;70.30;;;;;;5014639;28;20037;-65
2020/12/24 07:02:52;;;;;;;7.20;2.30;;;8.90;70.20;;;;;;4963895;28;20720;-65
2020/12/24 07:05:40;;;;;;;6.00;2.42;;;8.80;70.80;;;;;;5032516;28;20386;-66
2020/12/24 07:08:07;;;;;;;7.30;2.72;;;8.80;70.80;;;;;;5032534;28;20116;-65
2020/12/24 07:10:49;;;;;;;10.18;2.70;;;8.70;71.10;;;;;;5032320;28;20021;-64
2020/12/24 07:13:34;;;;;;;5.45;2.20;;;8.70;71.10;;;;;;5015218;28;20546;-64
2020/12/24 07:16:43;;;;;;;13.45;6.93;;;8.70;71.00;;;;;;5043612;28;20060;-66
2020/12/24 07:19:15;;;;;;;6.72;2.30;;;8.70;71.20;;;;;;5051905;28;20061;-64
2020/12/24 07:21:45;;;;;;;9.85;2.63;;;8.70;71.40;;;;;;5052151;28;20036;-66
2020/12/24 07:24:13;;;;;;;6.15;2.03;;;8.70;71.70;;;;;;5051809;28;20037;-65
2020/12/24 07:26:40;;;;;;;7.15;2.25;;;8.60;71.90;;;;;;5051631;28;20034;-65
2020/12/24 07:29:07;;;;;;;9.45;2.72;;;8.60;72.00;;;;;;5034321;28;20041;-67
2020/12/24 07:31:33;;;;;;;4.13;2.15;;;8.60;72.20;;;;;;5051381;28;20491;-66
2020/12/24 07:34:01;;;;;;;9.23;2.88;;;8.60;71.70;;;;;;5034115;28;20131;-66
2020/12/24 07:36:28;;;;;;;8.57;2.70;;;8.50;72.00;;;;;;5051869;28;20029;-66
2020/12/24 07:38:54;;;;;;;5.28;2.30;;;8.60;71.90;;;;;;5017477;28;20028;-66
2020/12/24 07:41:20;;;;;;;4.57;2.30;;;8.60;72.10;;;;;;5044800;28;20048;-66
2020/12/24 07:43:45;;;;;;;8.77;3.03;;;8.60;72.30;;;;;;5031835;28;20034;-65
2020/12/24 07:46:11;;;;;;;8.00;2.63;;;8.50;72.60;;;;;;5031596;28;20147;-65
2020/12/24 07:48:38;;;;;;;5.50;2.58;;;8.60;72.40;;;;;;5031720;28;20037;-65
2020/12/24 07:51:10;;;;;;;4.82;2.63;;;8.60;72.70;;;;;;5030093;28;20029;-66
2020/12/24 07:53:36;;;;;;;5.65;2.35;;;8.50;72.90;;;;;;5031484;28;20034;-65
2020/12/24 07:56:05;;;;;;;4.53;3.10;;;8.50;73.20;;;;;;5013966;28;20029;-66
2020/12/24 07:58:31;;;;;;;6.88;2.60;;;8.50;73.30;;;;;;5013979;28;20175;-65
2020/12/24 08:01:00;;;;;;;6.38;2.28;;;8.50;73.30;;;;;;5031861;28;20524;-66
2020/12/24 08:03:26;;;;;;;5.20;2.30;;;8.60;73.50;;;;;;5016082;28;20435;-65
2020/12/24 08:06:04;;;;;;;9.77;2.83;;;8.60;73.10;;;;;;5035681;28;20038;-66
2020/12/24 08:08:37;;;;;;;6.75;3.20;;;8.60;73.30;;;;;;5037689;28;20041;-65
2020/12/24 08:11:07;;;;;;;7.50;2.42;;;8.60;73.30;;;;;;5041797;28;20026;-65
2020/12/24 08:13:33;;;;;;;7.82;2.78;;;8.60;73.20;;;;;;5026068;28;20033;-65
2020/12/24 08:15:58;;;;;;;6.45;2.67;;;8.60;73.40;;;;;;5050150;28;20029;-65
2020/12/24 08:18:34;;;;;;;7.85;2.40;;;8.70;73.40;;;;;;5058761;28;20025;-65
2020/12/24 08:21:21;;;;;;;7.82;2.75;;;8.70;73.50;;;;;;5040782;28;20036;-66
2020/12/24 08:23:55;;;;;;;8.85;2.60;;;8.70;73.40;;;;;;5055972;28;20076;-66
2020/12/24 08:26:21;;;;;;;;;;;8.80;73.70;;;;;;5038807;28;20048;-65
2020/12/24 08:28:57;;;;;;;8.98;2.70;;;8.80;73.70;;;;;;5055451;28;19905;-67
2020/12/24 08:31:25;;;;;;;6.05;2.53;;;8.80;74.00;;;;;;5037153;28;20132;-67
2020/12/24 08:33:53;;;;;;;9.85;2.80;;;8.70;74.10;;;;;;5037480;28;20483;-67
2020/12/24 08:36:27;;;;;;;8.95;2.97;;;8.70;74.40;;;;;;5037451;28;20040;-65
2020/12/24 08:39:07;;;;;;;7.80;2.80;;;8.60;74.80;;;;;;5037504;28;20068;-67
2020/12/24 08:41:54;;;;;;;9.38;2.80;;;8.60;75.00;;;;;;5028838;28;20082;-66
2020/12/24 08:44:21;;;;;;;9.38;2.88;;;8.70;75.10;;;;;;5034962;28;20037;-64
2020/12/24 08:47:09;;;;;;;9.10;3.28;;;8.70;75.10;;;;;;5016009;28;20069;-66
2020/12/24 08:49:42;;;;;;;10.60;3.05;;;8.60;75.10;;;;;;5034519;28;20037;-65
2020/12/24 08:52:23;;;;;;;8.98;2.80;;;8.60;75.00;;;;;;5017107;28;20034;-65
2020/12/24 08:54:59;;;;;;;9.07;2.70;;;8.60;75.20;;;;;;5017382;28;20457;-64
2020/12/24 08:57:24;;;;;;;8.50;2.70;;;8.70;75.20;;;;;;5037092;28;20512;-66
2020/12/24 09:00:00;;;;;;;8.25;2.92;;;8.70;75.30;;;;;;5034643;28;20056;-64
2020/12/24 09:02:32;;;;;;;8.80;3.10;;;8.70;74.80;;;;;;5034982;28;20127;-65
2020/12/24 09:05:00;;;;;;;12.55;3.45;;;8.70;74.60;;;;;;5036157;28;20041;-65
2020/12/24 09:07:31;;;;;;;7.80;2.65;;;8.70;74.60;;;;;;5035505;28;20028;-67
2020/12/24 09:10:09;;;;;;;6.22;2.47;;;8.80;74.60;;;;;;5017084;28;20070;-67
2020/12/24 09:12:37;;;;;;;8.02;3.58;;;8.80;74.40;;;;;;5034335;28;20048;-66
2020/12/24 09:15:09;;;;;;;7.35;3.05;;;8.80;74.40;;;;;;5037325;28;20029;-66
2020/12/24 09:17:35;;;;;;;6.45;2.38;;;8.80;74.40;;;;;;5053777;28;20530;-66
2020/12/24 09:20:04;;;;;;;6.55;2.80;;;8.80;74.40;;;;;;5055888;28;20048;-67
2020/12/24 09:22:30;;;;;;;7.82;2.85;;;8.80;74.50;;;;;;5056866;28;20041;-66
2020/12/24 09:24:56;;;;;;;11.02;5.88;;;8.80;75.10;;;;;;5056592;28;20040;-66
2020/12/24 09:27:22;;;;;;;10.55;3.33;;;8.90;74.40;;;;;;5037219;28;20724;-66
2020/12/24 09:29:47;;;;;;;6.05;2.65;;;8.90;74.50;;;;;;5054464;28;20119;-66
2020/12/24 09:32:13;;;;;;;11.65;3.17;;;9.00;74.10;;;;;;5053989;28;20029;-66
2020/12/24 09:34:39;;;;;;;6.47;3.00;;;9.00;74.00;;;;;;5053810;28;20040;-65
2020/12/24 09:37:04;;;;;;;7.68;2.92;;;9.00;74.00;;;;;;5054117;28;20021;-65
2020/12/24 09:39:30;;;;;;;6.75;2.88;;;9.00;73.90;;;;;;5053598;28;20444;-65
2020/12/24 09:41:56;;;;;;;7.55;2.67;;;9.10;73.50;;;;;;5041577;28;20034;-65
2020/12/24 09:44:21;;;;;;;7.07;2.85;;;9.10;73.40;;;;;;5033491;28;20033;-65
2020/12/24 09:46:48;;;;;;;4.93;2.20;;;9.20;73.50;;;;;;5016152;28;20037;-65
2020/12/24 09:49:14;;;;;;;8.15;2.65;;;9.20;73.70;;;;;;5015859;28;20037;-66
2020/12/24 09:51:40;;;;;;;7.68;2.70;;;9.20;73.60;;;;;;5033367;28;20036;-65
2020/12/24 09:54:06;;;;;;;4.90;2.08;;;9.20;73.50;;;;;;5033238;28;20033;-65
2020/12/24 09:56:32;;;;;;;6.20;2.22;;;9.20;73.60;;;;;;4999645;28;20056;-66
2020/12/24 09:58:59;;;;;;;7.40;2.70;;;9.20;74.20;;;;;;5033444;28;20484;-65
2020/12/24 10:01:24;;;;;;;7.22;3.38;;;9.20;73.60;;;;;;5033066;28;20384;-66
2020/12/24 10:03:50;;;;;;;8.45;2.85;;;9.20;73.90;;;;;;5033152;28;20033;-66
2020/12/24 10:06:15;;;;;;;6.32;2.63;;;9.30;73.90;;;;;;5015773;28;20088;-65
2020/12/24 10:08:41;;;;;;;8.85;2.80;;;9.20;73.90;;;;;;5033373;28;20065;-67
2020/12/24 10:11:14;;;;;;;9.40;3.25;;;9.20;74.00;;;;;;5033361;28;20484;-67
2020/12/24 10:13:43;;;;;;;4.97;2.30;;;9.20;73.20;;;;;;5033117;28;20056;-67
2020/12/24 10:16:09;;;;;;;7.55;2.80;;;9.30;73.80;;;;;;5045472;28;20025;-67
2020/12/24 10:18:35;;;;;;;9.88;3.08;;;9.20;73.80;;;;;;5053197;28;20051;-66
2020/12/24 10:21:00;;;;;;;5.00;2.47;;;9.20;74.10;;;;;;5036017;28;20456;-66
2020/12/24 10:23:26;;;;;;;5.70;2.50;;;9.30;74.30;;;;;;5053156;28;20045;-67
2020/12/24 10:25:52;;;;;;;6.63;2.60;;;9.40;74.10;;;;;;5053344;28;20124;-66
2020/12/24 10:28:18;;;;;;;6.20;3.05;;;9.30;74.20;;;;;;5053604;28;20037;-66
2020/12/24 10:30:43;;;;;;;7.43;2.42;;;9.30;74.60;;;;;;5052273;28;20114;-67
2020/12/24 10:33:10;;;;;;;7.18;2.72;;;9.40;74.60;;;;;;5035099;28;20029;-66
2020/12/24 10:35:36;;;;;;;4.38;2.30;;;9.40;74.00;;;;;;5051379;28;20021;-69
2020/12/24 10:38:05;;;;;;;4.43;2.20;;;9.40;74.50;;;;;;5035990;28;20063;-66
2020/12/24 10:40:30;;;;;;;5.10;2.60;;;9.40;74.00;;;;;;5052382;28;20037;-66
2020/12/24 10:42:57;;;;;;;4.90;2.30;;;9.40;74.50;;;;;;5032734;28;20159;-67
2020/12/24 10:45:22;;;;;;;4.90;2.50;;;9.50;73.90;;;;;;5032472;28;20099;-66
2020/12/24 10:47:49;;;;;;;5.00;2.38;;;9.50;74.30;;;;;;5032758;28;20445;-66
2020/12/24 10:50:15;;;;;;;5.47;2.13;;;9.50;74.90;;;;;;5014760;28;20072;-67
2020/12/24 10:52:40;;;;;;;3.80;2.20;;;9.40;74.80;;;;;;5014016;28;20030;-67
2020/12/24 10:55:06;;;;;;;6.82;2.38;;;9.30;74.30;;;;;;5031638;28;20079;-67
2020/12/24 10:57:32;;;;;;;5.18;2.20;;;9.20;75.60;;;;;;5015056;28;20385;-67
2020/12/24 10:59:57;;;;;;;7.00;3.50;;;9.20;76.10;;;;;;5032810;28;20045;-65
2020/12/24 11:02:23;;;;;;;6.80;2.28;;;9.10;76.00;;;;;;5032370;28;20044;-66
2020/12/24 11:04:48;;;;;;;5.55;2.55;;;9.10;76.00;;;;;;5031159;28;20048;-64
2020/12/24 11:07:14;;;;;;;8.50;2.92;;;9.10;75.70;;;;;;5030187;28;20492;-66
2020/12/24 11:09:39;;;;;;;4.80;1.38;;;9.00;76.30;;;;;;5031629;28;20045;-67
2020/12/24 11:12:05;;;;;;;1.00;1.00;;;8.60;71.40;;;;;;5030781;28;20033;-68
2020/12/24 11:14:33;;;;;;;1.15;1.02;;;7.40;77.20;;;;;;5030772;28;20120;-67
2020/12/24 11:16:59;;;;;;;0.90;0.90;;;6.90;78.80;;;;;;5015371;28;20029;-70
2020/12/24 11:19:25;;;;;;;1.90;1.30;;;6.60;78.60;;;;;;5030712;28;20143;-69
2020/12/24 11:21:51;;;;;;;4.70;1.48;;;6.10;81.50;;;;;;5013332;28;20400;-67
2020/12/24 11:24:17;;;;;;;1.27;1.13;;;6.00;82.60;;;;;;5030478;28;20041;-68
2020/12/24 11:26:43;;;;;;;0.85;0.85;;;5.90;81.80;;;;;;5013084;28;20041;-70
2020/12/24 11:29:08;;;;;;;1.38;1.27;;;5.70;82.60;;;;;;5031147;28;20030;-70
2020/12/24 11:31:36;;;;;;;1.27;1.17;;;5.50;83.80;;;;;;5012750;28;20037;-69
2020/12/24 11:34:03;;;;;;;2.42;1.13;;;5.50;84.60;;;;;;5030347;28;20116;-70
2020/12/24 11:36:28;;;;;;;0.93;0.93;;;5.00;86.40;;;;;;5012465;28;20515;-69
2020/12/24 11:38:55;;;;;;;1.45;1.35;;;4.90;87.70;;;;;;5029601;28;20038;-68
2020/12/24 11:41:23;;;;;;;2.40;1.58;;;5.00;87.80;;;;;;5030444;28;20037;-69
2020/12/24 11:43:50;;;;;;;1.40;1.30;;;5.00;87.10;;;;;;5031126;28;20133;-68
2020/12/24 11:46:17;;;;;;;1.40;1.30;;;4.90;86.40;;;;;;5019281;28;20214;-68
2020/12/24 11:48:43;;;;;;;2.05;1.40;;;4.80;87.30;;;;;;4996020;28;20795;-69
2020/12/24 11:51:10;;;;;;;1.67;1.38;;;4.70;86.40;;;;;;5009084;28;20116;-69
2020/12/24 11:53:36;;;;;;;1.42;1.33;;;4.70;87.00;;;;;;5019753;28;20029;-69
2020/12/24 11:56:03;;;;;;;3.00;1.50;;;4.80;86.30;;;;;;5032080;28;20053;-68
2020/12/24 11:58:28;;;;;;;1.25;1.17;;;4.80;86.90;;;;;;5018914;28;20072;-69
2020/12/24 12:00:54;;;;;;;1.38;1.27;;;4.80;86.50;;;;;;4994014;28;20065;-68
2020/12/24 12:03:20;;;;;;;1.65;1.42;;;4.90;85.80;;;;;;5011279;28;20381;-67
2020/12/24 12:05:45;;;;;;;1.33;1.23;;;4.70;86.50;;;;;;4993256;28;20034;-69
2020/12/24 12:08:11;;;;;;;1.50;1.40;;;4.70;85.60;;;;;;4993829;28;20042;-68
2020/12/24 12:10:36;;;;;;;1.50;1.40;;;4.70;84.80;;;;;;4993667;28;20030;-69
2020/12/24 12:13:02;;;;;;;1.50;1.40;;;4.50;86.40;;;;;;5011072;28;20107;-70
2020/12/24 12:15:28;;;;;;;1.80;1.13;;;4.60;86.00;;;;;;5017879;28;20048;-67
2020/12/24 12:17:54;;;;;;;1.40;1.30;;;4.70;85.90;;;;;;5018149;28;20099;-70
2020/12/24 12:20:20;;;;;;;1.50;1.40;;;4.60;85.70;;;;;;5010972;28;20041;-69
2020/12/24 12:22:46;;;;;;;1.45;1.35;;;4.60;85.90;;;;;;4994926;28;20046;-68
2020/12/24 12:25:12;;;;;;;1.30;1.30;;;4.70;86.40;;;;;;5011516;28;20034;-67
2020/12/24 12:27:38;;;;;;;1.63;1.52;;;4.60;85.00;;;;;;5011292;28;20038;-68
2020/12/24 12:30:04;;;;;;;1.73;1.60;;;4.70;85.80;;;;;;5011818;28;20112;-67
2020/12/24 12:32:30;;;;;;;1.92;1.73;;;4.70;85.00;;;;;;5011369;28;20253;-68
2020/12/24 12:34:55;;;;;;;1.73;1.60;;;4.60;84.60;;;;;;5011218;28;20034;-68
2020/12/24 12:37:21;;;;;;;2.17;1.98;;;4.50;84.80;;;;;;4993286;28;20092;-68
2020/12/24 12:39:46;;;;;;;2.00;1.80;;;4.60;85.00;;;;;;5011991;28;20077;-68
2020/12/24 12:42:12;;;;;;;2.28;2.00;;;4.60;84.90;;;;;;5025538;28;20111;-68
2020/12/24 12:44:37;;;;;;;2.35;2.00;;;4.60;84.10;;;;;;5029083;28;20064;-68
2020/12/24 12:47:03;;;;;;;2.45;2.20;;;4.50;84.00;;;;;;5032539;28;20609;-68
2020/12/24 12:49:29;;;;;;;2.20;2.00;;;4.50;84.00;;;;;;5032255;28;20045;-67
2020/12/24 12:51:54;;;;;;;3.00;2.53;;;4.60;83.40;;;;;;5034989;28;20061;-69
2020/12/24 12:54:20;;;;;;;2.50;2.30;;;4.70;83.90;;;;;;5001989;28;20037;-69
2020/12/24 12:56:45;;;;;;;2.50;2.30;;;4.50;83.70;;;;;;5035560;28;20049;-67